Archival Weather

Republic

Farmingdale, New York (KFRG)

Report from: Monday, February 12, 2024 8:53 PM EST
Current time: Friday, June 14, 2024 9:11 AM EDT

Current weather – Weather history – Daily summaries
Weather forecast

Temperature4.4°C (39.9°F)
Dew point-1.7°C (28.9°F)
Winds Calm
Visibility10 mi. (16.1 km)
Clouds Ceiling: Broken clouds 11,000 ft. (3,353 m)
Altimeter29.84 in.Hg (1010 mB)
Relative humidity65 %
Density altitude-1,099 ft. (-335 m)
Sea-level pressure101.0 kPa (1010 mB, 29.83 in.Hg)
Remarks Automated weather observing station without precipitation discriminator
Flight conditions Visual Meteorological Conditions
Raw dataKFRG 130153Z 00000KT 10SM BKN110 04/M02 A2984 RMK AO1 SLP103 T00441017
An error has occurred. This application may no longer respond until reloaded. Reload 🗙